sensor_id;sensor_type;location;lat;lon;timestamp;P1;durP1;ratioP1;P2;durP2;ratioP2
13764;SDS011;6953;48.810;9.204;2023-04-24T00:00:33;0.50;;;0.50;;
13764;SDS011;6953;48.810;9.204;2023-04-24T00:02:58;0.47;;;0.47;;
13764;SDS011;6953;48.810;9.204;2023-04-24T00:05:24;0.50;;;0.50;;
13764;SDS011;6953;48.810;9.204;2023-04-24T00:07:49;0.40;;;0.40;;
13764;SDS011;6953;48.810;9.204;2023-04-24T00:10:17;0.30;;;0.30;;
13764;SDS011;6953;48.810;9.204;2023-04-24T00:12:43;0.40;;;0.40;;
13764;SDS011;6953;48.810;9.204;2023-04-24T00:15:08;0.40;;;0.40;;
13764;SDS011;6953;48.810;9.204;2023-04-24T00:17:34;0.40;;;0.40;;
13764;SDS011;6953;48.810;9.204;2023-04-24T00:20:00;0.40;;;0.40;;
13764;SDS011;6953;48.810;9.204;2023-04-24T00:22:27;0.50;;;0.50;;
13764;SDS011;6953;48.810;9.204;2023-04-24T00:24:53;0.50;;;0.50;;
13764;SDS011;6953;48.810;9.204;2023-04-24T00:27:18;0.40;;;0.40;;
13764;SDS011;6953;48.810;9.204;2023-04-24T00:29:44;0.50;;;0.50;;
13764;SDS011;6953;48.810;9.204;2023-04-24T00:32:10;0.45;;;0.45;;
13764;SDS011;6953;48.810;9.204;2023-04-24T00:34:35;0.50;;;0.50;;
13764;SDS011;6953;48.810;9.204;2023-04-24T00:37:01;0.50;;;0.50;;
13764;SDS011;6953;48.810;9.204;2023-04-24T00:39:26;0.40;;;0.40;;
13764;SDS011;6953;48.810;9.204;2023-04-24T00:41:51;0.38;;;0.38;;
13764;SDS011;6953;48.810;9.204;2023-04-24T00:44:18;0.50;;;0.50;;
13764;SDS011;6953;48.810;9.204;2023-04-24T00:46:43;0.45;;;0.45;;
13764;SDS011;6953;48.810;9.204;2023-04-24T00:49:08;0.40;;;0.40;;
13764;SDS011;6953;48.810;9.204;2023-04-24T00:51:34;0.50;;;0.50;;
13764;SDS011;6953;48.810;9.204;2023-04-24T00:53:59;0.50;;;0.50;;
13764;SDS011;6953;48.810;9.204;2023-04-24T00:56:26;0.40;;;0.40;;
13764;SDS011;6953;48.810;9.204;2023-04-24T00:58:52;0.50;;;0.50;;
13764;SDS011;6953;48.810;9.204;2023-04-24T01:01:20;0.50;;;0.50;;
13764;SDS011;6953;48.810;9.204;2023-04-24T01:03:46;0.50;;;0.50;;
13764;SDS011;6953;48.810;9.204;2023-04-24T01:06:13;0.50;;;0.50;;
13764;SDS011;6953;48.810;9.204;2023-04-24T01:08:40;0.40;;;0.40;;
13764;SDS011;6953;48.810;9.204;2023-04-24T01:11:06;0.50;;;0.50;;
13764;SDS011;6953;48.810;9.204;2023-04-24T01:13:32;0.50;;;0.50;;
13764;SDS011;6953;48.810;9.204;2023-04-24T01:15:58;0.43;;;0.43;;
13764;SDS011;6953;48.810;9.204;2023-04-24T01:18:24;0.30;;;0.30;;
13764;SDS011;6953;48.810;9.204;2023-04-24T01:20:50;0.43;;;0.43;;
13764;SDS011;6953;48.810;9.204;2023-04-24T01:23:18;0.40;;;0.40;;
13764;SDS011;6953;48.810;9.204;2023-04-24T01:25:43;0.50;;;0.50;;
13764;SDS011;6953;48.810;9.204;2023-04-24T01:28:09;0.52;;;0.52;;
13764;SDS011;6953;48.810;9.204;2023-04-24T01:30:35;0.40;;;0.40;;
13764;SDS011;6953;48.810;9.204;2023-04-24T01:33:00;0.45;;;0.45;;
13764;SDS011;6953;48.810;9.204;2023-04-24T01:35:26;0.50;;;0.50;;
13764;SDS011;6953;48.810;9.204;2023-04-24T01:37:51;0.40;;;0.40;;
13764;SDS011;6953;48.810;9.204;2023-04-24T01:40:17;0.50;;;0.50;;
13764;SDS011;6953;48.810;9.204;2023-04-24T01:42:42;0.50;;;0.50;;
13764;SDS011;6953;48.810;9.204;2023-04-24T01:45:08;0.50;;;0.50;;
13764;SDS011;6953;48.810;9.204;2023-04-24T01:47:35;0.40;;;0.40;;
13764;SDS011;6953;48.810;9.204;2023-04-24T01:50:01;0.40;;;0.40;;
13764;SDS011;6953;48.810;9.204;2023-04-24T01:52:28;0.60;;;0.60;;
13764;SDS011;6953;48.810;9.204;2023-04-24T01:54:56;0.50;;;0.50;;
13764;SDS011;6953;48.810;9.204;2023-04-24T01:57:24;0.60;;;0.60;;
13764;SDS011;6953;48.810;9.204;2023-04-24T01:59:50;0.50;;;0.50;;
13764;SDS011;6953;48.810;9.204;2023-04-24T02:02:16;0.40;;;0.40;;
13764;SDS011;6953;48.810;9.204;2023-04-24T02:04:42;0.40;;;0.40;;
13764;SDS011;6953;48.810;9.204;2023-04-24T02:07:07;0.50;;;0.50;;
13764;SDS011;6953;48.810;9.204;2023-04-24T02:09:33;0.50;;;0.50;;
13764;SDS011;6953;48.810;9.204;2023-04-24T02:11:58;0.40;;;0.40;;
13764;SDS011;6953;48.810;9.204;2023-04-24T02:14:23;0.40;;;0.40;;
13764;SDS011;6953;48.810;9.204;2023-04-24T02:16:49;0.50;;;0.50;;
13764;SDS011;6953;48.810;9.204;2023-04-24T02:19:14;0.45;;;0.45;;
13764;SDS011;6953;48.810;9.204;2023-04-24T02:21:40;0.50;;;0.50;;
13764;SDS011;6953;48.810;9.204;2023-04-24T02:24:05;0.40;;;0.40;;
13764;SDS011;6953;48.810;9.204;2023-04-24T02:26:30;0.50;;;0.50;;
13764;SDS011;6953;48.810;9.204;2023-04-24T02:28:56;0.60;;;0.60;;
13764;SDS011;6953;48.810;9.204;2023-04-24T02:31:22;0.43;;;0.43;;
13764;SDS011;6953;48.810;9.204;2023-04-24T02:33:47;0.40;;;0.40;;
13764;SDS011;6953;48.810;9.204;2023-04-24T02:36:14;0.50;;;0.50;;
13764;SDS011;6953;48.810;9.204;2023-04-24T02:38:40;0.50;;;0.50;;
13764;SDS011;6953;48.810;9.204;2023-04-24T02:41:05;0.60;;;0.60;;
13764;SDS011;6953;48.810;9.204;2023-04-24T02:43:32;0.52;;;0.52;;
13764;SDS011;6953;48.810;9.204;2023-04-24T02:45:58;0.60;;;0.60;;
13764;SDS011;6953;48.810;9.204;2023-04-24T02:48:23;0.70;;;0.70;;
13764;SDS011;6953;48.810;9.204;2023-04-24T02:50:49;0.70;;;0.70;;
13764;SDS011;6953;48.810;9.204;2023-04-24T02:53:15;0.60;;;0.60;;
13764;SDS011;6953;48.810;9.204;2023-04-24T02:55:41;0.70;;;0.70;;
13764;SDS011;6953;48.810;9.204;2023-04-24T02:58:06;0.50;;;0.50;;
13764;SDS011;6953;48.810;9.204;2023-04-24T03:00:32;0.60;;;0.60;;
13764;SDS011;6953;48.810;9.204;2023-04-24T03:02:57;0.63;;;0.63;;
13764;SDS011;6953;48.810;9.204;2023-04-24T03:05:23;0.50;;;0.50;;
13764;SDS011;6953;48.810;9.204;2023-04-24T03:07:48;0.60;;;0.60;;
13764;SDS011;6953;48.810;9.204;2023-04-24T03:10:13;0.50;;;0.50;;
13764;SDS011;6953;48.810;9.204;2023-04-24T03:12:39;0.55;;;0.55;;
13764;SDS011;6953;48.810;9.204;2023-04-24T03:15:04;0.68;;;0.68;;
13764;SDS011;6953;48.810;9.204;2023-04-24T03:17:30;0.68;;;0.68;;
13764;SDS011;6953;48.810;9.204;2023-04-24T03:19:55;0.60;;;0.60;;
13764;SDS011;6953;48.810;9.204;2023-04-24T03:22:21;0.60;;;0.60;;
13764;SDS011;6953;48.810;9.204;2023-04-24T03:24:46;0.60;;;0.60;;
13764;SDS011;6953;48.810;9.204;2023-04-24T03:27:11;0.70;;;0.70;;
13764;SDS011;6953;48.810;9.204;2023-04-24T03:29:37;0.70;;;0.70;;
13764;SDS011;6953;48.810;9.204;2023-04-24T03:32:02;0.70;;;0.70;;
13764;SDS011;6953;48.810;9.204;2023-04-24T03:34:27;0.50;;;0.50;;
13764;SDS011;6953;48.810;9.204;2023-04-24T03:36:53;0.57;;;0.57;;
13764;SDS011;6953;48.810;9.204;2023-04-24T03:39:18;0.65;;;0.65;;
13764;SDS011;6953;48.810;9.204;2023-04-24T03:41:43;0.65;;;0.65;;
13764;SDS011;6953;48.810;9.204;2023-04-24T03:44:09;0.70;;;0.70;;
13764;SDS011;6953;48.810;9.204;2023-04-24T03:46:34;0.50;;;0.50;;
13764;SDS011;6953;48.810;9.204;2023-04-24T03:49:00;0.50;;;0.50;;
13764;SDS011;6953;48.810;9.204;2023-04-24T03:51:25;0.57;;;0.57;;
13764;SDS011;6953;48.810;9.204;2023-04-24T03:53:52;0.60;;;0.60;;
13764;SDS011;6953;48.810;9.204;2023-04-24T03:56:18;0.50;;;0.50;;
13764;SDS011;6953;48.810;9.204;2023-04-24T03:58:43;0.60;;;0.60;;
13764;SDS011;6953;48.810;9.204;2023-04-24T04:01:09;0.57;;;0.57;;
13764;SDS011;6953;48.810;9.204;2023-04-24T04:03:35;0.50;;;0.50;;
13764;SDS011;6953;48.810;9.204;2023-04-24T04:06:00;0.60;;;0.60;;
13764;SDS011;6953;48.810;9.204;2023-04-24T04:08:26;0.68;;;0.68;;
13764;SDS011;6953;48.810;9.204;2023-04-24T04:10:51;0.60;;;0.60;;
13764;SDS011;6953;48.810;9.204;2023-04-24T04:13:16;0.50;;;0.50;;
13764;SDS011;6953;48.810;9.204;2023-04-24T04:15:42;0.60;;;0.60;;
13764;SDS011;6953;48.810;9.204;2023-04-24T04:18:07;0.70;;;0.70;;
13764;SDS011;6953;48.810;9.204;2023-04-24T04:20:33;0.50;;;0.50;;
13764;SDS011;6953;48.810;9.204;2023-04-24T04:22:58;0.52;;;0.52;;
13764;SDS011;6953;48.810;9.204;2023-04-24T04:25:24;0.60;;;0.60;;
13764;SDS011;6953;48.810;9.204;2023-04-24T04:27:49;0.40;;;0.40;;
13764;SDS011;6953;48.810;9.204;2023-04-24T04:30:16;0.50;;;0.50;;
13764;SDS011;6953;48.810;9.204;2023-04-24T04:32:41;0.60;;;0.60;;
13764;SDS011;6953;48.810;9.204;2023-04-24T04:35:06;0.60;;;0.60;;
13764;SDS011;6953;48.810;9.204;2023-04-24T04:37:32;0.47;;;0.47;;
13764;SDS011;6953;48.810;9.204;2023-04-24T04:40:01;0.55;;;0.55;;
13764;SDS011;6953;48.810;9.204;2023-04-24T04:42:35;0.60;;;0.60;;
13764;SDS011;6953;48.810;9.204;2023-04-24T04:45:01;0.52;;;0.52;;
13764;SDS011;6953;48.810;9.204;2023-04-24T04:47:27;0.60;;;0.60;;
13764;SDS011;6953;48.810;9.204;2023-04-24T04:49:53;0.50;;;0.50;;
13764;SDS011;6953;48.810;9.204;2023-04-24T04:52:19;0.60;;;0.60;;
13764;SDS011;6953;48.810;9.204;2023-04-24T04:54:45;0.70;;;0.70;;
13764;SDS011;6953;48.810;9.204;2023-04-24T04:57:11;0.60;;;0.60;;
13764;SDS011;6953;48.810;9.204;2023-04-24T04:59:37;0.60;;;0.60;;
13764;SDS011;6953;48.810;9.204;2023-04-24T05:02:02;0.70;;;0.70;;
13764;SDS011;6953;48.810;9.204;2023-04-24T05:04:28;0.70;;;0.70;;
13764;SDS011;6953;48.810;9.204;2023-04-24T05:06:55;0.60;;;0.60;;
13764;SDS011;6953;48.810;9.204;2023-04-24T05:09:21;0.60;;;0.60;;
13764;SDS011;6953;48.810;9.204;2023-04-24T05:11:46;0.73;;;0.73;;
13764;SDS011;6953;48.810;9.204;2023-04-24T05:14:12;0.70;;;0.70;;
13764;SDS011;6953;48.810;9.204;2023-04-24T05:16:37;0.52;;;0.52;;
13764;SDS011;6953;48.810;9.204;2023-04-24T05:19:03;0.57;;;0.57;;
13764;SDS011;6953;48.810;9.204;2023-04-24T05:21:28;0.80;;;0.80;;
13764;SDS011;6953;48.810;9.204;2023-04-24T05:23:54;0.63;;;0.63;;
13764;SDS011;6953;48.810;9.204;2023-04-24T05:26:19;0.60;;;0.60;;
13764;SDS011;6953;48.810;9.204;2023-04-24T05:28:45;0.55;;;0.55;;
13764;SDS011;6953;48.810;9.204;2023-04-24T05:31:10;0.60;;;0.60;;
13764;SDS011;6953;48.810;9.204;2023-04-24T05:33:37;0.52;;;0.52;;
13764;SDS011;6953;48.810;9.204;2023-04-24T05:36:02;0.60;;;0.60;;
13764;SDS011;6953;48.810;9.204;2023-04-24T05:38:28;0.60;;;0.60;;
13764;SDS011;6953;48.810;9.204;2023-04-24T05:40:53;0.57;;;0.57;;
13764;SDS011;6953;48.810;9.204;2023-04-24T05:43:20;0.60;;;0.60;;
13764;SDS011;6953;48.810;9.204;2023-04-24T05:45:45;0.52;;;0.52;;
13764;SDS011;6953;48.810;9.204;2023-04-24T05:48:10;0.52;;;0.52;;
13764;SDS011;6953;48.810;9.204;2023-04-24T05:50:36;0.55;;;0.55;;
13764;SDS011;6953;48.810;9.204;2023-04-24T05:53:01;0.52;;;0.52;;
13764;SDS011;6953;48.810;9.204;2023-04-24T05:55:27;0.50;;;0.50;;
13764;SDS011;6953;48.810;9.204;2023-04-24T05:57:52;0.43;;;0.43;;
13764;SDS011;6953;48.810;9.204;2023-04-24T06:00:18;0.50;;;0.50;;
13764;SDS011;6953;48.810;9.204;2023-04-24T06:02:44;0.45;;;0.45;;
13764;SDS011;6953;48.810;9.204;2023-04-24T06:05:10;0.57;;;0.57;;
13764;SDS011;6953;48.810;9.204;2023-04-24T06:07:35;0.60;;;0.60;;
13764;SDS011;6953;48.810;9.204;2023-04-24T06:10:01;0.60;;;0.60;;
13764;SDS011;6953;48.810;9.204;2023-04-24T06:12:26;0.50;;;0.50;;
13764;SDS011;6953;48.810;9.204;2023-04-24T06:14:52;0.50;;;0.50;;
13764;SDS011;6953;48.810;9.204;2023-04-24T06:17:17;0.45;;;0.45;;
13764;SDS011;6953;48.810;9.204;2023-04-24T06:19:43;0.50;;;0.50;;
13764;SDS011;6953;48.810;9.204;2023-04-24T06:22:08;0.60;;;0.60;;
13764;SDS011;6953;48.810;9.204;2023-04-24T06:24:34;0.50;;;0.50;;
13764;SDS011;6953;48.810;9.204;2023-04-24T06:27:00;0.50;;;0.50;;
13764;SDS011;6953;48.810;9.204;2023-04-24T06:29:26;0.30;;;0.30;;
13764;SDS011;6953;48.810;9.204;2023-04-24T06:31:52;0.40;;;0.40;;
13764;SDS011;6953;48.810;9.204;2023-04-24T06:34:17;0.20;;;0.20;;
13764;SDS011;6953;48.810;9.204;2023-04-24T06:36:42;0.20;;;0.20;;
13764;SDS011;6953;48.810;9.204;2023-04-24T06:39:08;0.20;;;0.20;;
13764;SDS011;6953;48.810;9.204;2023-04-24T06:41:34;0.20;;;0.20;;
13764;SDS011;6953;48.810;9.204;2023-04-24T06:43:59;0.20;;;0.20;;
13764;SDS011;6953;48.810;9.204;2023-04-24T06:46:25;0.20;;;0.20;;
13764;SDS011;6953;48.810;9.204;2023-04-24T06:48:52;0.20;;;0.20;;
13764;SDS011;6953;48.810;9.204;2023-04-24T06:51:24;0.22;;;0.22;;
13764;SDS011;6953;48.810;9.204;2023-04-24T06:53:53;0.30;;;0.30;;
13764;SDS011;6953;48.810;9.204;2023-04-24T06:56:21;0.20;;;0.20;;
13764;SDS011;6953;48.810;9.204;2023-04-24T06:58:46;0.20;;;0.20;;
13764;SDS011;6953;48.810;9.204;2023-04-24T07:01:12;0.15;;;0.15;;
13764;SDS011;6953;48.810;9.204;2023-04-24T07:03:37;0.30;;;0.30;;
13764;SDS011;6953;48.810;9.204;2023-04-24T07:06:03;0.20;;;0.20;;
13764;SDS011;6953;48.810;9.204;2023-04-24T07:08:29;0.20;;;0.20;;
13764;SDS011;6953;48.810;9.204;2023-04-24T07:10:55;0.20;;;0.20;;
13764;SDS011;6953;48.810;9.204;2023-04-24T07:13:22;0.20;;;0.20;;
13764;SDS011;6953;48.810;9.204;2023-04-24T07:15:48;0.20;;;0.20;;
13764;SDS011;6953;48.810;9.204;2023-04-24T07:18:15;0.20;;;0.20;;
13764;SDS011;6953;48.810;9.204;2023-04-24T07:20:41;0.20;;;0.20;;
13764;SDS011;6953;48.810;9.204;2023-04-24T07:23:07;0.30;;;0.30;;
13764;SDS011;6953;48.810;9.204;2023-04-24T07:25:32;0.10;;;0.10;;
13764;SDS011;6953;48.810;9.204;2023-04-24T07:27:58;0.30;;;0.30;;
13764;SDS011;6953;48.810;9.204;2023-04-24T07:30:23;0.30;;;0.30;;
13764;SDS011;6953;48.810;9.204;2023-04-24T07:32:49;0.30;;;0.30;;
13764;SDS011;6953;48.810;9.204;2023-04-24T07:35:15;0.30;;;0.30;;
13764;SDS011;6953;48.810;9.204;2023-04-24T07:37:41;0.30;;;0.30;;
13764;SDS011;6953;48.810;9.204;2023-04-24T07:40:10;0.30;;;0.30;;
13764;SDS011;6953;48.810;9.204;2023-04-24T07:42:39;0.40;;;0.40;;
13764;SDS011;6953;48.810;9.204;2023-04-24T07:45:04;0.30;;;0.30;;
13764;SDS011;6953;48.810;9.204;2023-04-24T07:47:31;0.30;;;0.30;;
13764;SDS011;6953;48.810;9.204;2023-04-24T07:49:56;0.20;;;0.20;;
13764;SDS011;6953;48.810;9.204;2023-04-24T07:52:22;0.30;;;0.30;;
13764;SDS011;6953;48.810;9.204;2023-04-24T07:54:48;0.30;;;0.30;;
13764;SDS011;6953;48.810;9.204;2023-04-24T07:57:14;0.30;;;0.30;;
13764;SDS011;6953;48.810;9.204;2023-04-24T07:59:40;0.20;;;0.20;;
13764;SDS011;6953;48.810;9.204;2023-04-24T08:02:06;0.20;;;0.20;;
13764;SDS011;6953;48.810;9.204;2023-04-24T08:04:31;0.30;;;0.30;;
13764;SDS011;6953;48.810;9.204;2023-04-24T08:06:57;0.20;;;0.20;;
13764;SDS011;6953;48.810;9.204;2023-04-24T08:09:22;0.30;;;0.30;;
13764;SDS011;6953;48.810;9.204;2023-04-24T08:11:48;0.30;;;0.30;;
13764;SDS011;6953;48.810;9.204;2023-04-24T08:14:13;0.20;;;0.20;;
13764;SDS011;6953;48.810;9.204;2023-04-24T08:16:39;0.20;;;0.20;;
13764;SDS011;6953;48.810;9.204;2023-04-24T08:19:05;0.30;;;0.30;;
13764;SDS011;6953;48.810;9.204;2023-04-24T08:21:31;0.20;;;0.20;;
13764;SDS011;6953;48.810;9.204;2023-04-24T08:23:57;0.10;;;0.10;;
13764;SDS011;6953;48.810;9.204;2023-04-24T08:26:22;0.20;;;0.20;;
13764;SDS011;6953;48.810;9.204;2023-04-24T08:28:47;0.20;;;0.20;;
13764;SDS011;6953;48.810;9.204;2023-04-24T08:31:13;0.10;;;0.10;;
13764;SDS011;6953;48.810;9.204;2023-04-24T08:33:38;0.10;;;0.10;;
13764;SDS011;6953;48.810;9.204;2023-04-24T08:36:05;0.10;;;0.10;;
13764;SDS011;6953;48.810;9.204;2023-04-24T08:38:31;0.20;;;0.20;;
13764;SDS011;6953;48.810;9.204;2023-04-24T08:40:58;0.20;;;0.20;;
13764;SDS011;6953;48.810;9.204;2023-04-24T08:43:25;0.22;;;0.22;;
13764;SDS011;6953;48.810;9.204;2023-04-24T08:45:52;0.30;;;0.30;;
13764;SDS011;6953;48.810;9.204;2023-04-24T08:48:20;0.40;;;0.40;;
13764;SDS011;6953;48.810;9.204;2023-04-24T08:50:47;0.30;;;0.30;;
13764;SDS011;6953;48.810;9.204;2023-04-24T08:53:15;0.40;;;0.40;;
13764;SDS011;6953;48.810;9.204;2023-04-24T08:55:40;0.40;;;0.40;;
13764;SDS011;6953;48.810;9.204;2023-04-24T08:58:08;0.40;;;0.40;;
13764;SDS011;6953;48.810;9.204;2023-04-24T09:00:34;0.40;;;0.40;;
13764;SDS011;6953;48.810;9.204;2023-04-24T09:03:00;0.40;;;0.40;;
13764;SDS011;6953;48.810;9.204;2023-04-24T09:05:26;0.40;;;0.40;;
13764;SDS011;6953;48.810;9.204;2023-04-24T09:07:56;0.40;;;0.40;;
13764;SDS011;6953;48.810;9.204;2023-04-24T09:10:23;0.40;;;0.40;;
13764;SDS011;6953;48.810;9.204;2023-04-24T09:12:50;0.50;;;0.50;;
13764;SDS011;6953;48.810;9.204;2023-04-24T09:15:16;0.40;;;0.40;;
13764;SDS011;6953;48.810;9.204;2023-04-24T09:17:43;0.40;;;0.40;;
13764;SDS011;6953;48.810;9.204;2023-04-24T09:20:09;0.45;;;0.45;;
13764;SDS011;6953;48.810;9.204;2023-04-24T09:22:35;0.40;;;0.40;;
13764;SDS011;6953;48.810;9.204;2023-04-24T09:25:02;0.40;;;0.40;;
13764;SDS011;6953;48.810;9.204;2023-04-24T09:27:30;0.50;;;0.50;;
13764;SDS011;6953;48.810;9.204;2023-04-24T09:29:57;0.60;;;0.60;;
13764;SDS011;6953;48.810;9.204;2023-04-24T09:32:23;0.60;;;0.60;;
13764;SDS011;6953;48.810;9.204;2023-04-24T09:35:13;0.60;;;0.60;;
13764;SDS011;6953;48.810;9.204;2023-04-24T09:37:41;0.60;;;0.60;;
13764;SDS011;6953;48.810;9.204;2023-04-24T09:42:37;0.60;;;0.60;;
13764;SDS011;6953;48.810;9.204;2023-04-24T09:45:03;0.50;;;0.50;;
13764;SDS011;6953;48.810;9.204;2023-04-24T09:47:37;0.30;;;0.30;;
13764;SDS011;6953;48.810;9.204;2023-04-24T09:50:09;0.40;;;0.40;;
13764;SDS011;6953;48.810;9.204;2023-04-24T09:52:40;0.40;;;0.40;;
13764;SDS011;6953;48.810;9.204;2023-04-24T09:55:27;0.38;;;0.38;;
13764;SDS011;6953;48.810;9.204;2023-04-24T09:57:56;0.30;;;0.30;;
13764;SDS011;6953;48.810;9.204;2023-04-24T10:00:34;0.30;;;0.30;;
13764;SDS011;6953;48.810;9.204;2023-04-24T10:03:00;0.40;;;0.40;;
13764;SDS011;6953;48.810;9.204;2023-04-24T10:05:30;0.40;;;0.40;;
13764;SDS011;6953;48.810;9.204;2023-04-24T10:08:06;0.40;;;0.40;;
13764;SDS011;6953;48.810;9.204;2023-04-24T10:10:34;0.20;;;0.20;;
13764;SDS011;6953;48.810;9.204;2023-04-24T10:13:09;0.32;;;0.32;;
13764;SDS011;6953;48.810;9.204;2023-04-24T10:15:36;0.30;;;0.30;;
13764;SDS011;6953;48.810;9.204;2023-04-24T10:18:02;0.30;;;0.30;;
13764;SDS011;6953;48.810;9.204;2023-04-24T10:20:31;0.30;;;0.30;;
13764;SDS011;6953;48.810;9.204;2023-04-24T10:22:57;0.20;;;0.20;;
13764;SDS011;6953;48.810;9.204;2023-04-24T10:25:24;0.20;;;0.20;;
13764;SDS011;6953;48.810;9.204;2023-04-24T10:27:58;0.20;;;0.20;;
13764;SDS011;6953;48.810;9.204;2023-04-24T10:30:25;0.20;;;0.20;;
13764;SDS011;6953;48.810;9.204;2023-04-24T10:32:52;0.20;;;0.20;;
13764;SDS011;6953;48.810;9.204;2023-04-24T10:35:17;0.20;;;0.20;;
13764;SDS011;6953;48.810;9.204;2023-04-24T10:37:53;0.20;;;0.20;;
13764;SDS011;6953;48.810;9.204;2023-04-24T10:40:29;0.20;;;0.20;;
13764;SDS011;6953;48.810;9.204;2023-04-24T10:42:56;0.30;;;0.30;;
13764;SDS011;6953;48.810;9.204;2023-04-24T10:45:22;0.30;;;0.30;;
13764;SDS011;6953;48.810;9.204;2023-04-24T10:47:52;0.30;;;0.30;;
13764;SDS011;6953;48.810;9.204;2023-04-24T10:50:17;0.50;;;0.50;;
13764;SDS011;6953;48.810;9.204;2023-04-24T10:52:43;0.40;;;0.40;;
13764;SDS011;6953;48.810;9.204;2023-04-24T10:55:10;0.40;;;0.40;;
13764;SDS011;6953;48.810;9.204;2023-04-24T10:57:38;0.30;;;0.30;;
13764;SDS011;6953;48.810;9.204;2023-04-24T11:00:10;0.30;;;0.30;;
13764;SDS011;6953;48.810;9.204;2023-04-24T11:02:40;0.30;;;0.30;;
13764;SDS011;6953;48.810;9.204;2023-04-24T11:05:14;0.40;;;0.40;;
13764;SDS011;6953;48.810;9.204;2023-04-24T11:10:44;0.28;;;0.28;;
13764;SDS011;6953;48.810;9.204;2023-04-24T11:13:13;0.40;;;0.40;;
13764;SDS011;6953;48.810;9.204;2023-04-24T11:15:41;0.45;;;0.45;;
13764;SDS011;6953;48.810;9.204;2023-04-24T11:18:11;0.40;;;0.40;;
13764;SDS011;6953;48.810;9.204;2023-04-24T11:20:41;0.43;;;0.43;;
13764;SDS011;6953;48.810;9.204;2023-04-24T11:23:07;0.50;;;0.50;;
13764;SDS011;6953;48.810;9.204;2023-04-24T11:25:33;0.50;;;0.50;;
13764;SDS011;6953;48.810;9.204;2023-04-24T11:28:04;0.50;;;0.50;;
13764;SDS011;6953;48.810;9.204;2023-04-24T11:30:31;0.40;;;0.40;;
13764;SDS011;6953;48.810;9.204;2023-04-24T11:33:02;0.40;;;0.40;;
13764;SDS011;6953;48.810;9.204;2023-04-24T11:35:29;0.40;;;0.40;;
13764;SDS011;6953;48.810;9.204;2023-04-24T11:37:55;0.40;;;0.40;;
13764;SDS011;6953;48.810;9.204;2023-04-24T11:40:21;0.30;;;0.30;;
13764;SDS011;6953;48.810;9.204;2023-04-24T11:42:49;0.35;;;0.35;;
13764;SDS011;6953;48.810;9.204;2023-04-24T11:47:50;0.30;;;0.30;;
13764;SDS011;6953;48.810;9.204;2023-04-24T11:50:17;0.40;;;0.40;;
13764;SDS011;6953;48.810;9.204;2023-04-24T11:52:44;0.30;;;0.30;;
13764;SDS011;6953;48.810;9.204;2023-04-24T11:57:39;0.30;;;0.30;;
13764;SDS011;6953;48.810;9.204;2023-04-24T12:00:09;0.40;;;0.40;;
13764;SDS011;6953;48.810;9.204;2023-04-24T12:02:39;0.43;;;0.43;;
13764;SDS011;6953;48.810;9.204;2023-04-24T12:05:05;0.40;;;0.40;;
13764;SDS011;6953;48.810;9.204;2023-04-24T12:07:31;0.40;;;0.40;;
13764;SDS011;6953;48.810;9.204;2023-04-24T12:10:07;0.40;;;0.40;;
13764;SDS011;6953;48.810;9.204;2023-04-24T12:12:34;0.40;;;0.40;;
13764;SDS011;6953;48.810;9.204;2023-04-24T12:15:00;0.40;;;0.40;;
13764;SDS011;6953;48.810;9.204;2023-04-24T12:17:31;0.30;;;0.30;;
13764;SDS011;6953;48.810;9.204;2023-04-24T12:20:07;0.38;;;0.38;;
13764;SDS011;6953;48.810;9.204;2023-04-24T12:22:46;0.40;;;0.40;;
13764;SDS011;6953;48.810;9.204;2023-04-24T12:25:16;0.47;;;0.47;;
13764;SDS011;6953;48.810;9.204;2023-04-24T12:27:44;0.40;;;0.40;;
13764;SDS011;6953;48.810;9.204;2023-04-24T12:30:12;0.40;;;0.40;;
13764;SDS011;6953;48.810;9.204;2023-04-24T12:32:46;0.40;;;0.40;;
13764;SDS011;6953;48.810;9.204;2023-04-24T12:35:13;0.50;;;0.50;;
13764;SDS011;6953;48.810;9.204;2023-04-24T12:37:43;0.40;;;0.40;;
13764;SDS011;6953;48.810;9.204;2023-04-24T12:40:09;0.40;;;0.40;;
13764;SDS011;6953;48.810;9.204;2023-04-24T12:42:42;0.43;;;0.43;;
13764;SDS011;6953;48.810;9.204;2023-04-24T12:45:18;0.30;;;0.30;;
13764;SDS011;6953;48.810;9.204;2023-04-24T12:47:44;0.50;;;0.50;;
13764;SDS011;6953;48.810;9.204;2023-04-24T12:50:12;0.52;;;0.52;;
13764;SDS011;6953;48.810;9.204;2023-04-24T12:52:38;0.40;;;0.40;;
13764;SDS011;6953;48.810;9.204;2023-04-24T12:55:05;0.40;;;0.40;;
13764;SDS011;6953;48.810;9.204;2023-04-24T12:57:33;0.40;;;0.40;;
13764;SDS011;6953;48.810;9.204;2023-04-24T12:59:59;0.50;;;0.50;;
13764;SDS011;6953;48.810;9.204;2023-04-24T13:02:30;0.50;;;0.50;;
13764;SDS011;6953;48.810;9.204;2023-04-24T13:04:56;0.50;;;0.50;;
13764;SDS011;6953;48.810;9.204;2023-04-24T13:07:22;0.40;;;0.40;;
13764;SDS011;6953;48.810;9.204;2023-04-24T13:09:49;0.82;;;0.82;;
13764;SDS011;6953;48.810;9.204;2023-04-24T13:12:15;0.80;;;0.80;;
13764;SDS011;6953;48.810;9.204;2023-04-24T13:14:41;0.80;;;0.80;;
13764;SDS011;6953;48.810;9.204;2023-04-24T13:17:07;0.60;;;0.60;;
13764;SDS011;6953;48.810;9.204;2023-04-24T13:19:39;0.60;;;0.60;;
13764;SDS011;6953;48.810;9.204;2023-04-24T13:22:06;0.60;;;0.60;;
13764;SDS011;6953;48.810;9.204;2023-04-24T13:24:32;0.40;;;0.40;;
13764;SDS011;6953;48.810;9.204;2023-04-24T13:26:58;0.50;;;0.50;;
13764;SDS011;6953;48.810;9.204;2023-04-24T13:29:23;0.40;;;0.40;;
13764;SDS011;6953;48.810;9.204;2023-04-24T13:31:52;0.50;;;0.50;;
13764;SDS011;6953;48.810;9.204;2023-04-24T13:34:22;0.40;;;0.40;;
13764;SDS011;6953;48.810;9.204;2023-04-24T13:36:49;0.45;;;0.45;;
13764;SDS011;6953;48.810;9.204;2023-04-24T13:39:18;0.50;;;0.50;;
13764;SDS011;6953;48.810;9.204;2023-04-24T13:41:43;0.40;;;0.40;;
13764;SDS011;6953;48.810;9.204;2023-04-24T13:44:09;0.40;;;0.40;;
13764;SDS011;6953;48.810;9.204;2023-04-24T13:46:34;0.40;;;0.40;;
13764;SDS011;6953;48.810;9.204;2023-04-24T13:49:01;0.40;;;0.40;;
13764;SDS011;6953;48.810;9.204;2023-04-24T13:51:28;0.40;;;0.40;;
13764;SDS011;6953;48.810;9.204;2023-04-24T13:53:54;0.40;;;0.40;;
13764;SDS011;6953;48.810;9.204;2023-04-24T13:56:20;0.60;;;0.60;;
13764;SDS011;6953;48.810;9.204;2023-04-24T13:58:46;0.47;;;0.47;;
13764;SDS011;6953;48.810;9.204;2023-04-24T14:01:12;0.50;;;0.50;;
13764;SDS011;6953;48.810;9.204;2023-04-24T14:03:38;0.60;;;0.60;;
13764;SDS011;6953;48.810;9.204;2023-04-24T14:06:03;0.40;;;0.40;;
13764;SDS011;6953;48.810;9.204;2023-04-24T14:08:29;0.40;;;0.40;;
13764;SDS011;6953;48.810;9.204;2023-04-24T14:10:54;0.40;;;0.40;;
13764;SDS011;6953;48.810;9.204;2023-04-24T14:13:20;0.40;;;0.40;;
13764;SDS011;6953;48.810;9.204;2023-04-24T14:15:45;0.30;;;0.30;;
13764;SDS011;6953;48.810;9.204;2023-04-24T14:18:11;0.20;;;0.20;;
13764;SDS011;6953;48.810;9.204;2023-04-24T14:20:36;0.20;;;0.20;;
13764;SDS011;6953;48.810;9.204;2023-04-24T14:23:03;0.20;;;0.20;;
13764;SDS011;6953;48.810;9.204;2023-04-24T14:25:29;0.25;;;0.25;;
13764;SDS011;6953;48.810;9.204;2023-04-24T14:27:55;0.20;;;0.20;;
13764;SDS011;6953;48.810;9.204;2023-04-24T14:30:20;0.30;;;0.30;;
13764;SDS011;6953;48.810;9.204;2023-04-24T14:32:46;0.30;;;0.30;;
13764;SDS011;6953;48.810;9.204;2023-04-24T14:35:11;0.25;;;0.25;;
13764;SDS011;6953;48.810;9.204;2023-04-24T14:37:37;0.20;;;0.20;;
13764;SDS011;6953;48.810;9.204;2023-04-24T14:40:03;0.25;;;0.25;;
13764;SDS011;6953;48.810;9.204;2023-04-24T14:42:31;0.30;;;0.30;;
13764;SDS011;6953;48.810;9.204;2023-04-24T14:44:56;0.30;;;0.30;;
13764;SDS011;6953;48.810;9.204;2023-04-24T14:47:22;0.30;;;0.30;;
13764;SDS011;6953;48.810;9.204;2023-04-24T14:49:50;0.40;;;0.40;;
13764;SDS011;6953;48.810;9.204;2023-04-24T14:52:15;0.30;;;0.30;;
13764;SDS011;6953;48.810;9.204;2023-04-24T14:54:41;0.40;;;0.40;;
13764;SDS011;6953;48.810;9.204;2023-04-24T14:57:07;0.40;;;0.40;;
13764;SDS011;6953;48.810;9.204;2023-04-24T14:59:32;0.50;;;0.50;;
13764;SDS011;6953;48.810;9.204;2023-04-24T15:01:58;0.40;;;0.40;;
13764;SDS011;6953;48.810;9.204;2023-04-24T15:04:24;0.40;;;0.40;;
13764;SDS011;6953;48.810;9.204;2023-04-24T15:06:52;0.40;;;0.40;;